Curlew, Washington
Current Conditions -  °F | °C
As of 9:20 PM on Thursday 30 Oct 2014 (Local Time) from KOMK Reporting Station
Moderate Fog Moderate Fog  
Wind Chill: 48°   Ceiling: 200
Heat Index: 48°   Visibility: 0.5mi
Dew Point: 47°   Wind: 0mph
Humidity: 96%   Direction: NA
Pressure: 29.86"   Gusts: NA
Location:  48.89°N, 118.6°W
Report Text: KOMK 310420Z AUTO 00000KT 1/2SM FG BKN002 BKN070 OVC090 09/08 A2986 RMK AO2 RAE20 P0000 T00890083
Loading
Personal Weather Stations






























Interactive Weather Map
Tropical Storm Tracking
New forecast layout! Learn more

10-Day Weather Forecast

Advertisements
Track Severe Weather on mobile